sensor_id;sensor_type;location;lat;lon;timestamp;P1;durP1;ratioP1;P2;durP2;ratioP2
8540;SDS011;4308;51.294;6.590;2023-10-09T00:01:34;39.37;;;22.53;;
8540;SDS011;4308;51.294;6.590;2023-10-09T00:04:02;38.27;;;21.60;;
8540;SDS011;4308;51.294;6.590;2023-10-09T00:06:29;36.93;;;22.47;;
8540;SDS011;4308;51.294;6.590;2023-10-09T00:08:57;33.50;;;19.70;;
8540;SDS011;4308;51.294;6.590;2023-10-09T00:11:25;34.80;;;19.97;;
8540;SDS011;4308;51.294;6.590;2023-10-09T00:13:52;33.63;;;19.63;;
8540;SDS011;4308;51.294;6.590;2023-10-09T00:16:20;34.20;;;18.23;;
8540;SDS011;4308;51.294;6.590;2023-10-09T00:18:48;34.77;;;19.20;;
8540;SDS011;4308;51.294;6.590;2023-10-09T00:21:16;30.90;;;18.90;;
8540;SDS011;4308;51.294;6.590;2023-10-09T00:23:44;32.93;;;18.07;;
8540;SDS011;4308;51.294;6.590;2023-10-09T00:26:11;29.97;;;17.13;;
8540;SDS011;4308;51.294;6.590;2023-10-09T00:28:39;23.80;;;16.10;;
8540;SDS011;4308;51.294;6.590;2023-10-09T00:31:07;29.50;;;15.90;;
8540;SDS011;4308;51.294;6.590;2023-10-09T00:33:34;29.70;;;18.23;;
8540;SDS011;4308;51.294;6.590;2023-10-09T00:36:03;29.53;;;18.13;;
8540;SDS011;4308;51.294;6.590;2023-10-09T00:38:30;25.40;;;16.67;;
8540;SDS011;4308;51.294;6.590;2023-10-09T00:40:59;25.40;;;16.67;;
8540;SDS011;4308;51.294;6.590;2023-10-09T00:43:27;32.43;;;16.20;;
8540;SDS011;4308;51.294;6.590;2023-10-09T00:45:54;25.57;;;16.17;;
8540;SDS011;4308;51.294;6.590;2023-10-09T00:48:23;28.43;;;15.03;;
8540;SDS011;4308;51.294;6.590;2023-10-09T00:50:51;23.97;;;15.13;;
8540;SDS011;4308;51.294;6.590;2023-10-09T00:53:19;20.00;;;14.23;;
8540;SDS011;4308;51.294;6.590;2023-10-09T00:55:47;23.23;;;13.70;;
8540;SDS011;4308;51.294;6.590;2023-10-09T00:58:15;23.93;;;14.47;;
8540;SDS011;4308;51.294;6.590;2023-10-09T01:00:43;20.87;;;13.93;;
8540;SDS011;4308;51.294;6.590;2023-10-09T01:03:20;22.37;;;14.43;;
8540;SDS011;4308;51.294;6.590;2023-10-09T01:05:48;23.30;;;15.30;;
8540;SDS011;4308;51.294;6.590;2023-10-09T01:08:16;25.37;;;15.00;;
8540;SDS011;4308;51.294;6.590;2023-10-09T01:10:45;19.87;;;13.30;;
8540;SDS011;4308;51.294;6.590;2023-10-09T01:13:12;21.33;;;14.30;;
8540;SDS011;4308;51.294;6.590;2023-10-09T01:15:40;21.97;;;13.17;;
8540;SDS011;4308;51.294;6.590;2023-10-09T01:18:08;22.93;;;13.83;;
8540;SDS011;4308;51.294;6.590;2023-10-09T01:20:36;18.67;;;13.20;;
8540;SDS011;4308;51.294;6.590;2023-10-09T01:23:03;22.77;;;13.07;;
8540;SDS011;4308;51.294;6.590;2023-10-09T01:25:31;21.17;;;13.37;;
8540;SDS011;4308;51.294;6.590;2023-10-09T01:27:58;17.13;;;12.10;;
8540;SDS011;4308;51.294;6.590;2023-10-09T01:30:26;18.63;;;12.77;;
8540;SDS011;4308;51.294;6.590;2023-10-09T01:32:53;21.53;;;13.03;;
8540;SDS011;4308;51.294;6.590;2023-10-09T01:35:21;21.50;;;13.17;;
8540;SDS011;4308;51.294;6.590;2023-10-09T01:37:49;20.30;;;11.70;;
8540;SDS011;4308;51.294;6.590;2023-10-09T01:40:16;20.93;;;12.77;;
8540;SDS011;4308;51.294;6.590;2023-10-09T01:42:44;17.07;;;12.30;;
8540;SDS011;4308;51.294;6.590;2023-10-09T01:45:12;17.27;;;12.13;;
8540;SDS011;4308;51.294;6.590;2023-10-09T01:47:40;16.30;;;12.43;;
8540;SDS011;4308;51.294;6.590;2023-10-09T01:50:08;16.83;;;10.87;;
8540;SDS011;4308;51.294;6.590;2023-10-09T01:52:35;19.00;;;12.10;;
8540;SDS011;4308;51.294;6.590;2023-10-09T01:55:03;16.13;;;11.67;;
8540;SDS011;4308;51.294;6.590;2023-10-09T01:57:31;17.80;;;12.17;;
8540;SDS011;4308;51.294;6.590;2023-10-09T01:59:58;19.67;;;11.97;;
8540;SDS011;4308;51.294;6.590;2023-10-09T02:02:26;15.10;;;11.47;;
8540;SDS011;4308;51.294;6.590;2023-10-09T02:05:02;20.20;;;12.30;;
8540;SDS011;4308;51.294;6.590;2023-10-09T02:07:30;16.67;;;11.90;;
8540;SDS011;4308;51.294;6.590;2023-10-09T02:09:57;19.83;;;12.77;;
8540;SDS011;4308;51.294;6.590;2023-10-09T02:12:25;18.10;;;11.80;;
8540;SDS011;4308;51.294;6.590;2023-10-09T02:14:52;17.50;;;12.03;;
8540;SDS011;4308;51.294;6.590;2023-10-09T02:17:20;19.80;;;12.27;;
8540;SDS011;4308;51.294;6.590;2023-10-09T02:19:48;19.77;;;11.97;;
8540;SDS011;4308;51.294;6.590;2023-10-09T02:22:15;16.67;;;11.23;;
8540;SDS011;4308;51.294;6.590;2023-10-09T02:24:43;16.50;;;12.23;;
8540;SDS011;4308;51.294;6.590;2023-10-09T02:27:11;15.70;;;11.27;;
8540;SDS011;4308;51.294;6.590;2023-10-09T02:29:39;13.10;;;10.10;;
8540;SDS011;4308;51.294;6.590;2023-10-09T02:32:06;14.43;;;10.90;;
8540;SDS011;4308;51.294;6.590;2023-10-09T02:34:34;19.17;;;11.60;;
8540;SDS011;4308;51.294;6.590;2023-10-09T02:37:01;17.60;;;11.60;;
8540;SDS011;4308;51.294;6.590;2023-10-09T02:39:29;17.17;;;11.23;;
8540;SDS011;4308;51.294;6.590;2023-10-09T02:41:57;16.27;;;11.43;;
8540;SDS011;4308;51.294;6.590;2023-10-09T02:44:24;14.90;;;11.07;;
8540;SDS011;4308;51.294;6.590;2023-10-09T02:46:52;15.70;;;10.23;;
8540;SDS011;4308;51.294;6.590;2023-10-09T02:49:19;16.27;;;10.50;;
8540;SDS011;4308;51.294;6.590;2023-10-09T02:51:47;17.13;;;11.27;;
8540;SDS011;4308;51.294;6.590;2023-10-09T02:54:15;15.50;;;10.50;;
8540;SDS011;4308;51.294;6.590;2023-10-09T02:56:43;17.30;;;11.47;;
8540;SDS011;4308;51.294;6.590;2023-10-09T02:59:10;16.47;;;11.13;;
8540;SDS011;4308;51.294;6.590;2023-10-09T03:01:38;15.87;;;10.37;;
8540;SDS011;4308;51.294;6.590;2023-10-09T03:04:06;17.90;;;11.40;;
8540;SDS011;4308;51.294;6.590;2023-10-09T03:06:34;13.73;;;9.87;;
8540;SDS011;4308;51.294;6.590;2023-10-09T03:09:02;16.70;;;11.07;;
8540;SDS011;4308;51.294;6.590;2023-10-09T03:11:30;15.87;;;10.43;;
8540;SDS011;4308;51.294;6.590;2023-10-09T03:13:57;14.63;;;10.17;;
8540;SDS011;4308;51.294;6.590;2023-10-09T03:16:25;15.03;;;10.70;;
8540;SDS011;4308;51.294;6.590;2023-10-09T03:18:52;15.13;;;9.93;;
8540;SDS011;4308;51.294;6.590;2023-10-09T03:21:20;15.00;;;10.13;;
8540;SDS011;4308;51.294;6.590;2023-10-09T03:23:48;15.83;;;10.10;;
8540;SDS011;4308;51.294;6.590;2023-10-09T03:26:16;18.33;;;10.30;;
8540;SDS011;4308;51.294;6.590;2023-10-09T03:28:48;15.40;;;9.97;;
8540;SDS011;4308;51.294;6.590;2023-10-09T03:31:16;14.97;;;9.43;;
8540;SDS011;4308;51.294;6.590;2023-10-09T03:33:44;14.10;;;10.27;;
8540;SDS011;4308;51.294;6.590;2023-10-09T03:36:11;12.10;;;9.13;;
8540;SDS011;4308;51.294;6.590;2023-10-09T03:38:39;18.97;;;10.13;;
8540;SDS011;4308;51.294;6.590;2023-10-09T03:41:07;11.60;;;8.57;;
8540;SDS011;4308;51.294;6.590;2023-10-09T03:43:35;14.80;;;9.93;;
8540;SDS011;4308;51.294;6.590;2023-10-09T03:46:03;14.73;;;9.83;;
8540;SDS011;4308;51.294;6.590;2023-10-09T03:48:31;11.80;;;8.13;;
8540;SDS011;4308;51.294;6.590;2023-10-09T03:50:59;15.10;;;9.73;;
8540;SDS011;4308;51.294;6.590;2023-10-09T03:53:27;14.97;;;9.27;;
8540;SDS011;4308;51.294;6.590;2023-10-09T03:55:54;16.37;;;10.17;;
8540;SDS011;4308;51.294;6.590;2023-10-09T03:58:22;12.23;;;8.37;;
8540;SDS011;4308;51.294;6.590;2023-10-09T04:00:49;14.90;;;9.63;;
8540;SDS011;4308;51.294;6.590;2023-10-09T04:03:17;11.63;;;8.73;;
8540;SDS011;4308;51.294;6.590;2023-10-09T04:05:45;10.97;;;8.43;;
8540;SDS011;4308;51.294;6.590;2023-10-09T04:08:12;15.77;;;9.97;;
8540;SDS011;4308;51.294;6.590;2023-10-09T04:10:40;15.97;;;9.43;;
8540;SDS011;4308;51.294;6.590;2023-10-09T04:13:07;15.40;;;10.10;;
8540;SDS011;4308;51.294;6.590;2023-10-09T04:15:35;16.03;;;9.23;;
8540;SDS011;4308;51.294;6.590;2023-10-09T04:18:03;12.50;;;9.53;;
8540;SDS011;4308;51.294;6.590;2023-10-09T04:20:31;12.83;;;9.30;;
8540;SDS011;4308;51.294;6.590;2023-10-09T04:22:58;14.33;;;9.40;;
8540;SDS011;4308;51.294;6.590;2023-10-09T04:25:27;12.70;;;9.77;;
8540;SDS011;4308;51.294;6.590;2023-10-09T04:27:54;15.00;;;9.83;;
8540;SDS011;4308;51.294;6.590;2023-10-09T04:30:22;14.40;;;8.73;;
8540;SDS011;4308;51.294;6.590;2023-10-09T04:32:50;14.93;;;8.77;;
8540;SDS011;4308;51.294;6.590;2023-10-09T04:35:18;14.70;;;9.13;;
8540;SDS011;4308;51.294;6.590;2023-10-09T04:37:45;12.97;;;9.73;;
8540;SDS011;4308;51.294;6.590;2023-10-09T04:40:13;11.43;;;8.93;;
8540;SDS011;4308;51.294;6.590;2023-10-09T04:42:40;12.87;;;8.97;;
8540;SDS011;4308;51.294;6.590;2023-10-09T04:45:08;10.03;;;7.40;;
8540;SDS011;4308;51.294;6.590;2023-10-09T04:47:36;9.73;;;7.07;;
8540;SDS011;4308;51.294;6.590;2023-10-09T04:50:10;12.40;;;7.63;;
8540;SDS011;4308;51.294;6.590;2023-10-09T04:52:38;12.87;;;7.80;;
8540;SDS011;4308;51.294;6.590;2023-10-09T04:55:06;14.13;;;8.13;;
8540;SDS011;4308;51.294;6.590;2023-10-09T04:57:34;10.90;;;8.73;;
8540;SDS011;4308;51.294;6.590;2023-10-09T05:00:02;13.47;;;8.70;;
8540;SDS011;4308;51.294;6.590;2023-10-09T05:02:30;10.17;;;6.93;;
8540;SDS011;4308;51.294;6.590;2023-10-09T05:04:58;10.63;;;6.87;;
8540;SDS011;4308;51.294;6.590;2023-10-09T05:07:26;9.40;;;7.27;;
8540;SDS011;4308;51.294;6.590;2023-10-09T05:09:53;9.13;;;7.30;;
8540;SDS011;4308;51.294;6.590;2023-10-09T05:12:21;11.63;;;6.70;;
8540;SDS011;4308;51.294;6.590;2023-10-09T05:14:49;11.67;;;7.67;;
8540;SDS011;4308;51.294;6.590;2023-10-09T05:17:17;9.90;;;6.87;;
8540;SDS011;4308;51.294;6.590;2023-10-09T05:19:44;10.33;;;7.20;;
8540;SDS011;4308;51.294;6.590;2023-10-09T05:22:12;12.00;;;7.23;;
8540;SDS011;4308;51.294;6.590;2023-10-09T05:24:39;12.07;;;7.77;;
8540;SDS011;4308;51.294;6.590;2023-10-09T05:27:07;9.07;;;7.00;;
8540;SDS011;4308;51.294;6.590;2023-10-09T05:29:36;11.53;;;7.43;;
8540;SDS011;4308;51.294;6.590;2023-10-09T05:32:04;9.60;;;7.60;;
8540;SDS011;4308;51.294;6.590;2023-10-09T05:34:32;9.20;;;6.70;;
8540;SDS011;4308;51.294;6.590;2023-10-09T05:37:03;12.37;;;6.90;;
8540;SDS011;4308;51.294;6.590;2023-10-09T05:39:31;12.50;;;7.93;;
8540;SDS011;4308;51.294;6.590;2023-10-09T05:41:59;9.30;;;7.43;;
8540;SDS011;4308;51.294;6.590;2023-10-09T05:44:27;9.07;;;6.47;;
8540;SDS011;4308;51.294;6.590;2023-10-09T05:46:54;12.23;;;8.37;;
8540;SDS011;4308;51.294;6.590;2023-10-09T05:49:22;10.40;;;6.77;;
8540;SDS011;4308;51.294;6.590;2023-10-09T05:51:50;9.77;;;7.07;;
8540;SDS011;4308;51.294;6.590;2023-10-09T05:54:17;8.23;;;7.00;;
8540;SDS011;4308;51.294;6.590;2023-10-09T05:56:45;10.03;;;7.20;;
8540;SDS011;4308;51.294;6.590;2023-10-09T05:59:12;10.53;;;8.10;;
8540;SDS011;4308;51.294;6.590;2023-10-09T06:01:40;11.13;;;6.87;;
8540;SDS011;4308;51.294;6.590;2023-10-09T06:04:08;12.63;;;9.40;;
8540;SDS011;4308;51.294;6.590;2023-10-09T06:06:36;12.80;;;8.30;;
8540;SDS011;4308;51.294;6.590;2023-10-09T06:09:05;11.13;;;7.87;;
8540;SDS011;4308;51.294;6.590;2023-10-09T06:11:32;11.03;;;7.20;;
8540;SDS011;4308;51.294;6.590;2023-10-09T06:14:00;12.03;;;8.40;;
8540;SDS011;4308;51.294;6.590;2023-10-09T06:16:28;12.30;;;8.73;;
8540;SDS011;4308;51.294;6.590;2023-10-09T06:18:56;14.47;;;9.80;;
8540;SDS011;4308;51.294;6.590;2023-10-09T06:21:24;15.23;;;9.70;;
8540;SDS011;4308;51.294;6.590;2023-10-09T06:23:51;13.53;;;10.27;;
8540;SDS011;4308;51.294;6.590;2023-10-09T06:26:19;11.93;;;9.40;;
8540;SDS011;4308;51.294;6.590;2023-10-09T06:28:46;12.50;;;8.90;;
8540;SDS011;4308;51.294;6.590;2023-10-09T06:31:14;10.60;;;7.80;;
8540;SDS011;4308;51.294;6.590;2023-10-09T06:33:42;14.07;;;9.33;;
8540;SDS011;4308;51.294;6.590;2023-10-09T06:36:12;9.73;;;6.70;;
8540;SDS011;4308;51.294;6.590;2023-10-09T06:38:39;14.97;;;8.83;;
8540;SDS011;4308;51.294;6.590;2023-10-09T06:41:07;14.73;;;9.10;;
8540;SDS011;4308;51.294;6.590;2023-10-09T06:43:37;14.13;;;8.20;;
8540;SDS011;4308;51.294;6.590;2023-10-09T06:46:05;12.13;;;8.87;;
8540;SDS011;4308;51.294;6.590;2023-10-09T06:48:32;10.30;;;6.83;;
8540;SDS011;4308;51.294;6.590;2023-10-09T06:51:07;14.43;;;8.33;;
8540;SDS011;4308;51.294;6.590;2023-10-09T06:53:35;9.53;;;7.33;;
8540;SDS011;4308;51.294;6.590;2023-10-09T06:56:02;10.80;;;7.33;;
8540;SDS011;4308;51.294;6.590;2023-10-09T06:58:30;10.83;;;7.40;;
8540;SDS011;4308;51.294;6.590;2023-10-09T07:00:58;10.90;;;6.60;;
8540;SDS011;4308;51.294;6.590;2023-10-09T07:03:26;15.87;;;10.17;;
8540;SDS011;4308;51.294;6.590;2023-10-09T07:06:02;14.37;;;7.73;;
8540;SDS011;4308;51.294;6.590;2023-10-09T07:08:30;10.80;;;6.97;;
8540;SDS011;4308;51.294;6.590;2023-10-09T07:11:00;9.20;;;6.83;;
8540;SDS011;4308;51.294;6.590;2023-10-09T07:13:27;9.63;;;6.80;;
8540;SDS011;4308;51.294;6.590;2023-10-09T07:15:55;12.57;;;8.60;;
8540;SDS011;4308;51.294;6.590;2023-10-09T07:18:23;14.07;;;9.37;;
8540;SDS011;4308;51.294;6.590;2023-10-09T07:20:50;12.80;;;8.93;;
8540;SDS011;4308;51.294;6.590;2023-10-09T07:23:18;15.23;;;9.90;;
8540;SDS011;4308;51.294;6.590;2023-10-09T07:25:45;12.63;;;7.70;;
8540;SDS011;4308;51.294;6.590;2023-10-09T07:28:13;11.30;;;9.30;;
8540;SDS011;4308;51.294;6.590;2023-10-09T07:30:41;11.47;;;8.03;;
8540;SDS011;4308;51.294;6.590;2023-10-09T07:33:09;14.30;;;8.00;;
8540;SDS011;4308;51.294;6.590;2023-10-09T07:38:04;12.90;;;8.43;;
8540;SDS011;4308;51.294;6.590;2023-10-09T07:40:32;12.97;;;8.73;;
8540;SDS011;4308;51.294;6.590;2023-10-09T07:42:59;15.70;;;10.20;;
8540;SDS011;4308;51.294;6.590;2023-10-09T07:45:27;10.73;;;7.33;;
8540;SDS011;4308;51.294;6.590;2023-10-09T07:47:55;11.07;;;8.77;;
8540;SDS011;4308;51.294;6.590;2023-10-09T07:50:22;11.70;;;7.97;;
8540;SDS011;4308;51.294;6.590;2023-10-09T07:52:50;12.70;;;8.37;;
8540;SDS011;4308;51.294;6.590;2023-10-09T07:55:18;13.90;;;7.10;;
8540;SDS011;4308;51.294;6.590;2023-10-09T07:57:45;17.83;;;9.43;;
8540;SDS011;4308;51.294;6.590;2023-10-09T08:00:13;12.63;;;8.13;;
8540;SDS011;4308;51.294;6.590;2023-10-09T08:02:41;13.77;;;8.57;;
8540;SDS011;4308;51.294;6.590;2023-10-09T08:05:08;16.53;;;7.70;;
8540;SDS011;4308;51.294;6.590;2023-10-09T08:07:36;15.03;;;7.80;;
8540;SDS011;4308;51.294;6.590;2023-10-09T08:10:23;12.90;;;8.83;;
8540;SDS011;4308;51.294;6.590;2023-10-09T08:12:51;15.90;;;9.33;;
8540;SDS011;4308;51.294;6.590;2023-10-09T08:15:19;17.70;;;9.57;;
8540;SDS011;4308;51.294;6.590;2023-10-09T08:20:22;17.07;;;9.80;;
8540;SDS011;4308;51.294;6.590;2023-10-09T08:22:49;20.17;;;9.73;;
8540;SDS011;4308;51.294;6.590;2023-10-09T08:25:17;14.17;;;9.23;;
8540;SDS011;4308;51.294;6.590;2023-10-09T08:27:45;14.40;;;9.40;;
8540;SDS011;4308;51.294;6.590;2023-10-09T08:30:12;14.97;;;8.73;;
8540;SDS011;4308;51.294;6.590;2023-10-09T08:32:40;10.47;;;8.07;;
8540;SDS011;4308;51.294;6.590;2023-10-09T08:35:10;16.70;;;8.40;;
8540;SDS011;4308;51.294;6.590;2023-10-09T08:37:38;12.77;;;8.47;;
8540;SDS011;4308;51.294;6.590;2023-10-09T08:40:06;15.87;;;9.67;;
8540;SDS011;4308;51.294;6.590;2023-10-09T08:42:34;13.93;;;8.20;;
8540;SDS011;4308;51.294;6.590;2023-10-09T08:45:01;11.93;;;8.37;;
8540;SDS011;4308;51.294;6.590;2023-10-09T08:47:30;16.13;;;9.47;;
8540;SDS011;4308;51.294;6.590;2023-10-09T08:49:58;13.93;;;9.07;;
8540;SDS011;4308;51.294;6.590;2023-10-09T08:52:26;13.83;;;9.90;;
8540;SDS011;4308;51.294;6.590;2023-10-09T08:54:54;15.97;;;8.40;;
8540;SDS011;4308;51.294;6.590;2023-10-09T08:57:21;15.80;;;8.67;;
8540;SDS011;4308;51.294;6.590;2023-10-09T08:59:49;15.30;;;9.10;;
8540;SDS011;4308;51.294;6.590;2023-10-09T09:02:16;10.67;;;6.73;;
8540;SDS011;4308;51.294;6.590;2023-10-09T09:04:44;11.40;;;7.20;;
8540;SDS011;4308;51.294;6.590;2023-10-09T09:07:28;16.87;;;8.87;;
8540;SDS011;4308;51.294;6.590;2023-10-09T09:09:57;11.83;;;7.80;;
8540;SDS011;4308;51.294;6.590;2023-10-09T09:12:24;14.03;;;7.37;;
8540;SDS011;4308;51.294;6.590;2023-10-09T09:14:52;16.47;;;8.77;;
8540;SDS011;4308;51.294;6.590;2023-10-09T09:17:23;11.37;;;8.20;;
8540;SDS011;4308;51.294;6.590;2023-10-09T09:19:51;11.00;;;7.83;;
8540;SDS011;4308;51.294;6.590;2023-10-09T09:22:18;10.60;;;7.20;;
8540;SDS011;4308;51.294;6.590;2023-10-09T09:24:58;11.97;;;8.10;;
8540;SDS011;4308;51.294;6.590;2023-10-09T09:27:43;12.10;;;7.60;;
8540;SDS011;4308;51.294;6.590;2023-10-09T09:30:21;14.43;;;8.20;;
8540;SDS011;4308;51.294;6.590;2023-10-09T09:32:49;11.63;;;7.50;;
8540;SDS011;4308;51.294;6.590;2023-10-09T09:35:17;12.30;;;8.13;;
8540;SDS011;4308;51.294;6.590;2023-10-09T09:37:51;11.83;;;7.07;;
8540;SDS011;4308;51.294;6.590;2023-10-09T09:40:20;15.40;;;7.73;;
8540;SDS011;4308;51.294;6.590;2023-10-09T09:42:47;12.83;;;7.90;;
8540;SDS011;4308;51.294;6.590;2023-10-09T09:45:16;15.23;;;8.03;;
8540;SDS011;4308;51.294;6.590;2023-10-09T09:47:44;14.03;;;8.70;;
8540;SDS011;4308;51.294;6.590;2023-10-09T09:50:12;14.00;;;8.30;;
8540;SDS011;4308;51.294;6.590;2023-10-09T09:52:40;19.60;;;8.53;;
8540;SDS011;4308;51.294;6.590;2023-10-09T09:55:09;15.77;;;8.03;;
8540;SDS011;4308;51.294;6.590;2023-10-09T09:57:37;13.27;;;8.07;;
8540;SDS011;4308;51.294;6.590;2023-10-09T10:00:05;13.13;;;7.60;;
8540;SDS011;4308;51.294;6.590;2023-10-09T10:02:35;13.67;;;8.77;;
8540;SDS011;4308;51.294;6.590;2023-10-09T10:05:07;17.27;;;8.53;;
8540;SDS011;4308;51.294;6.590;2023-10-09T10:07:36;14.97;;;8.30;;
8540;SDS011;4308;51.294;6.590;2023-10-09T10:10:30;13.53;;;8.13;;
8540;SDS011;4308;51.294;6.590;2023-10-09T10:12:53;15.27;;;9.40;;
8540;SDS011;4308;51.294;6.590;2023-10-09T10:15:23;20.03;;;8.53;;
8540;SDS011;4308;51.294;6.590;2023-10-09T10:20:26;11.30;;;8.77;;
8540;SDS011;4308;51.294;6.590;2023-10-09T10:26:04;13.90;;;8.53;;
8540;SDS011;4308;51.294;6.590;2023-10-09T10:28:43;11.93;;;9.03;;
8540;SDS011;4308;51.294;6.590;2023-10-09T10:31:11;15.07;;;9.50;;
8540;SDS011;4308;51.294;6.590;2023-10-09T10:36:22;16.13;;;9.27;;
8540;SDS011;4308;51.294;6.590;2023-10-09T10:41:28;13.57;;;9.63;;
8540;SDS011;4308;51.294;6.590;2023-10-09T10:43:56;14.13;;;9.73;;
8540;SDS011;4308;51.294;6.590;2023-10-09T10:46:24;14.90;;;9.60;;
8540;SDS011;4308;51.294;6.590;2023-10-09T10:48:52;14.63;;;8.97;;
8540;SDS011;4308;51.294;6.590;2023-10-09T10:51:20;15.53;;;9.80;;
8540;SDS011;4308;51.294;6.590;2023-10-09T10:53:51;15.60;;;9.17;;
8540;SDS011;4308;51.294;6.590;2023-10-09T10:56:19;16.53;;;10.00;;
8540;SDS011;4308;51.294;6.590;2023-10-09T10:58:53;12.50;;;8.27;;
8540;SDS011;4308;51.294;6.590;2023-10-09T11:01:21;12.33;;;9.13;;
8540;SDS011;4308;51.294;6.590;2023-10-09T11:03:49;16.00;;;7.93;;
8540;SDS011;4308;51.294;6.590;2023-10-09T11:06:23;9.60;;;6.87;;
8540;SDS011;4308;51.294;6.590;2023-10-09T11:08:51;12.63;;;9.00;;
8540;SDS011;4308;51.294;6.590;2023-10-09T11:11:19;12.37;;;8.00;;
8540;SDS011;4308;51.294;6.590;2023-10-09T11:13:48;13.53;;;8.90;;
8540;SDS011;4308;51.294;6.590;2023-10-09T11:16:16;12.00;;;7.20;;
8540;SDS011;4308;51.294;6.590;2023-10-09T11:18:45;14.67;;;8.00;;
8540;SDS011;4308;51.294;6.590;2023-10-09T11:21:13;13.27;;;8.53;;
8540;SDS011;4308;51.294;6.590;2023-10-09T11:23:41;12.07;;;7.50;;
8540;SDS011;4308;51.294;6.590;2023-10-09T11:26:09;11.33;;;8.53;;
8540;SDS011;4308;51.294;6.590;2023-10-09T11:28:36;10.63;;;7.33;;
8540;SDS011;4308;51.294;6.590;2023-10-09T11:31:11;13.33;;;8.40;;
8540;SDS011;4308;51.294;6.590;2023-10-09T11:36:16;15.37;;;9.13;;
8540;SDS011;4308;51.294;6.590;2023-10-09T11:38:43;12.87;;;8.50;;
8540;SDS011;4308;51.294;6.590;2023-10-09T11:41:12;13.97;;;7.60;;
8540;SDS011;4308;51.294;6.590;2023-10-09T11:43:49;18.60;;;9.00;;
8540;SDS011;4308;51.294;6.590;2023-10-09T11:46:17;15.87;;;8.93;;
8540;SDS011;4308;51.294;6.590;2023-10-09T11:48:45;11.83;;;8.50;;
8540;SDS011;4308;51.294;6.590;2023-10-09T11:51:13;13.47;;;7.50;;
8540;SDS011;4308;51.294;6.590;2023-10-09T11:53:41;16.50;;;9.30;;
8540;SDS011;4308;51.294;6.590;2023-10-09T11:56:09;16.30;;;9.70;;
8540;SDS011;4308;51.294;6.590;2023-10-09T11:58:36;16.53;;;9.47;;
8540;SDS011;4308;51.294;6.590;2023-10-09T12:01:10;16.13;;;10.00;;
8540;SDS011;4308;51.294;6.590;2023-10-09T12:03:38;15.73;;;9.47;;
8540;SDS011;4308;51.294;6.590;2023-10-09T12:06:05;15.67;;;10.00;;
8540;SDS011;4308;51.294;6.590;2023-10-09T12:08:33;15.47;;;9.20;;
8540;SDS011;4308;51.294;6.590;2023-10-09T12:11:03;10.13;;;7.50;;
8540;SDS011;4308;51.294;6.590;2023-10-09T12:13:31;12.90;;;9.60;;
8540;SDS011;4308;51.294;6.590;2023-10-09T12:15:59;17.47;;;9.93;;
8540;SDS011;4308;51.294;6.590;2023-10-09T12:18:26;24.10;;;11.90;;
8540;SDS011;4308;51.294;6.590;2023-10-09T12:20:54;24.63;;;11.80;;
8540;SDS011;4308;51.294;6.590;2023-10-09T12:23:22;31.70;;;13.47;;
8540;SDS011;4308;51.294;6.590;2023-10-09T12:25:53;28.43;;;13.07;;
8540;SDS011;4308;51.294;6.590;2023-10-09T12:28:21;21.33;;;11.10;;
8540;SDS011;4308;51.294;6.590;2023-10-09T12:30:49;20.63;;;10.93;;
8540;SDS011;4308;51.294;6.590;2023-10-09T12:33:20;20.60;;;11.63;;
8540;SDS011;4308;51.294;6.590;2023-10-09T12:35:48;20.50;;;10.40;;
8540;SDS011;4308;51.294;6.590;2023-10-09T12:38:16;23.17;;;11.10;;
8540;SDS011;4308;51.294;6.590;2023-10-09T12:40:44;23.33;;;11.80;;
8540;SDS011;4308;51.294;6.590;2023-10-09T12:43:11;24.50;;;11.63;;
8540;SDS011;4308;51.294;6.590;2023-10-09T12:45:39;19.07;;;11.37;;
8540;SDS011;4308;51.294;6.590;2023-10-09T12:48:06;18.13;;;10.70;;
8540;SDS011;4308;51.294;6.590;2023-10-09T12:50:37;16.63;;;10.93;;
8540;SDS011;4308;51.294;6.590;2023-10-09T12:53:05;16.03;;;10.33;;
8540;SDS011;4308;51.294;6.590;2023-10-09T12:55:39;16.00;;;10.53;;
8540;SDS011;4308;51.294;6.590;2023-10-09T12:58:08;13.57;;;10.57;;
8540;SDS011;4308;51.294;6.590;2023-10-09T13:00:37;19.00;;;10.17;;
8540;SDS011;4308;51.294;6.590;2023-10-09T13:03:05;16.60;;;10.40;;
8540;SDS011;4308;51.294;6.590;2023-10-09T13:05:33;16.47;;;11.13;;
8540;SDS011;4308;51.294;6.590;2023-10-09T13:08:00;19.13;;;11.50;;
8540;SDS011;4308;51.294;6.590;2023-10-09T13:10:28;19.27;;;10.70;;
8540;SDS011;4308;51.294;6.590;2023-10-09T13:12:55;19.33;;;12.63;;
8540;SDS011;4308;51.294;6.590;2023-10-09T13:15:23;20.23;;;11.53;;
8540;SDS011;4308;51.294;6.590;2023-10-09T13:17:51;31.87;;;11.77;;
8540;SDS011;4308;51.294;6.590;2023-10-09T13:20:18;23.87;;;12.73;;
8540;SDS011;4308;51.294;6.590;2023-10-09T13:22:46;25.00;;;12.70;;
8540;SDS011;4308;51.294;6.590;2023-10-09T13:25:14;20.83;;;12.13;;
8540;SDS011;4308;51.294;6.590;2023-10-09T13:28:00;20.50;;;11.87;;
8540;SDS011;4308;51.294;6.590;2023-10-09T13:30:28;22.17;;;12.70;;
8540;SDS011;4308;51.294;6.590;2023-10-09T13:32:55;20.30;;;12.73;;
8540;SDS011;4308;51.294;6.590;2023-10-09T13:35:23;19.93;;;12.07;;
8540;SDS011;4308;51.294;6.590;2023-10-09T13:37:50;16.27;;;10.20;;
8540;SDS011;4308;51.294;6.590;2023-10-09T13:40:18;17.13;;;10.13;;
8540;SDS011;4308;51.294;6.590;2023-10-09T13:42:46;18.10;;;11.90;;
8540;SDS011;4308;51.294;6.590;2023-10-09T13:45:13;20.40;;;11.37;;
8540;SDS011;4308;51.294;6.590;2023-10-09T13:47:41;20.50;;;12.33;;
8540;SDS011;4308;51.294;6.590;2023-10-09T13:50:09;20.07;;;11.30;;
8540;SDS011;4308;51.294;6.590;2023-10-09T13:52:37;17.73;;;10.23;;
8540;SDS011;4308;51.294;6.590;2023-10-09T13:55:06;15.97;;;9.80;;
8540;SDS011;4308;51.294;6.590;2023-10-09T13:57:34;16.63;;;10.10;;
8540;SDS011;4308;51.294;6.590;2023-10-09T14:00:02;16.50;;;10.73;;
8540;SDS011;4308;51.294;6.590;2023-10-09T14:02:29;21.77;;;11.37;;
8540;SDS011;4308;51.294;6.590;2023-10-09T14:04:57;17.53;;;11.90;;
8540;SDS011;4308;51.294;6.590;2023-10-09T14:07:25;20.03;;;12.57;;
8540;SDS011;4308;51.294;6.590;2023-10-09T14:09:52;17.40;;;12.53;;
8540;SDS011;4308;51.294;6.590;2023-10-09T14:12:20;17.33;;;11.63;;
8540;SDS011;4308;51.294;6.590;2023-10-09T14:14:48;18.80;;;12.00;;
8540;SDS011;4308;51.294;6.590;2023-10-09T14:17:20;20.87;;;13.37;;
8540;SDS011;4308;51.294;6.590;2023-10-09T14:19:48;17.87;;;11.47;;
8540;SDS011;4308;51.294;6.590;2023-10-09T14:22:17;16.43;;;11.77;;
8540;SDS011;4308;51.294;6.590;2023-10-09T14:24:45;14.43;;;10.53;;
8540;SDS011;4308;51.294;6.590;2023-10-09T14:27:13;15.87;;;11.60;;
8540;SDS011;4308;51.294;6.590;2023-10-09T14:29:40;18.13;;;13.13;;
8540;SDS011;4308;51.294;6.590;2023-10-09T14:32:08;18.07;;;11.67;;
8540;SDS011;4308;51.294;6.590;2023-10-09T14:34:36;17.50;;;13.17;;
8540;SDS011;4308;51.294;6.590;2023-10-09T14:37:03;17.23;;;12.03;;
8540;SDS011;4308;51.294;6.590;2023-10-09T14:39:31;14.87;;;10.53;;
8540;SDS011;4308;51.294;6.590;2023-10-09T14:41:59;17.30;;;11.20;;
8540;SDS011;4308;51.294;6.590;2023-10-09T14:44:27;18.00;;;11.70;;
8540;SDS011;4308;51.294;6.590;2023-10-09T14:46:55;13.40;;;9.53;;
8540;SDS011;4308;51.294;6.590;2023-10-09T14:49:23;16.83;;;13.03;;
8540;SDS011;4308;51.294;6.590;2023-10-09T14:51:50;18.77;;;10.97;;
8540;SDS011;4308;51.294;6.590;2023-10-09T14:54:18;14.50;;;10.23;;
8540;SDS011;4308;51.294;6.590;2023-10-09T14:56:46;18.10;;;10.70;;
8540;SDS011;4308;51.294;6.590;2023-10-09T14:59:13;17.63;;;12.83;;
8540;SDS011;4308;51.294;6.590;2023-10-09T15:01:41;18.17;;;10.67;;
8540;SDS011;4308;51.294;6.590;2023-10-09T15:04:09;15.30;;;11.33;;
8540;SDS011;4308;51.294;6.590;2023-10-09T15:06:36;18.20;;;11.53;;
8540;SDS011;4308;51.294;6.590;2023-10-09T15:09:04;17.33;;;12.47;;
8540;SDS011;4308;51.294;6.590;2023-10-09T15:11:31;18.63;;;12.27;;
8540;SDS011;4308;51.294;6.590;2023-10-09T15:13:59;16.20;;;10.10;;
8540;SDS011;4308;51.294;6.590;2023-10-09T15:16:27;15.17;;;10.80;;
8540;SDS011;4308;51.294;6.590;2023-10-09T15:18:55;14.83;;;9.37;;
8540;SDS011;4308;51.294;6.590;2023-10-09T15:21:23;14.87;;;10.27;;